Time;durP1;ratioP1;P1;durP2;ratioP2;P2;SDS_P1;SDS_P2;PMS_P1;PMS_P2;Temp;Humidity;BMP_temperature;BMP_pressure;BME280_temperature;BME280_humidity;BME280_pressure;Samples;Min_cycle;Max_cycle;Signal;HPM_P1;HPM_P2
2021/04/04 00:00:06;;;;;;;7.07;5.93;;;2.20;99.90;;;3.10;68.24;98558.44;5181424;28;20241;-55
2021/04/04 00:02:38;;;;;;;8.57;6.80;;;2.00;99.90;;;3.10;68.39;98556.78;5171368;28;20204;-55
2021/04/04 00:05:12;;;;;;;8.77;6.63;;;2.20;99.90;;;2.96;68.33;98554.56;5184211;28;20256;-55
2021/04/04 00:07:45;;;;;;;6.77;5.93;;;2.10;99.90;;;2.89;68.13;98550.56;5178304;28;20202;-56
2021/04/04 00:10:18;;;;;;;8.57;6.57;;;1.90;99.90;;;2.93;67.86;98552.63;5183591;28;20592;-55
2021/04/04 00:12:50;;;;;;;6.93;6.33;;;2.00;99.90;;;2.81;69.11;98553.06;5172707;28;20288;-55
2021/04/04 00:15:22;;;;;;;6.87;6.17;;;1.90;99.90;;;2.62;68.98;98556.31;5169867;28;20190;-56
2021/04/04 00:17:54;;;;;;;6.67;5.87;;;1.80;99.90;;;2.52;69.21;98552.72;5167296;28;20293;-55
2021/04/04 00:20:26;;;;;;;8.33;6.13;;;1.70;99.90;;;2.54;69.61;98562.22;5165230;28;20218;-54
2021/04/04 00:22:59;;;;;;;6.77;6.17;;;1.70;99.90;;;2.67;69.91;98554.25;5176395;28;20198;-53
2021/04/04 00:25:32;;;;;;;7.67;7.07;;;1.80;99.90;;;2.65;68.98;98556.59;5169621;28;20709;-54
2021/04/04 00:28:06;;;;;;;7.77;6.93;;;1.80;99.90;;;2.51;69.87;98554.34;5171624;28;20741;-55
2021/04/04 00:30:38;;;;;;;6.87;6.27;;;1.70;99.90;;;2.44;70.13;98549.44;5184309;28;20869;-56
2021/04/04 00:33:11;;;;;;;7.77;6.70;;;1.70;99.90;;;2.47;69.44;98550.63;5187874;28;20297;-56
2021/04/04 00:35:43;;;;;;;6.43;5.93;;;1.70;99.90;;;2.54;70.19;98554.66;5188197;28;20239;-55
2021/04/04 00:38:17;;;;;;;7.30;6.57;;;1.70;99.90;;;2.56;69.39;98545.59;5186689;28;20266;-56
2021/04/04 00:40:49;;;;;;;7.17;6.30;;;1.70;99.90;;;2.47;69.68;98539.66;5184706;28;20222;-56
2021/04/04 00:43:21;;;;;;;9.07;6.80;;;1.70;99.90;;;2.43;70.04;98558.66;5176218;28;20208;-54
2021/04/04 00:45:54;;;;;;;6.63;6.13;;;1.60;99.90;;;2.30;70.25;98549.72;5183027;28;20669;-55
2021/04/04 00:48:26;;;;;;;6.93;6.03;;;1.60;99.90;;;2.36;69.63;98541.13;5181822;28;20724;-55
2021/04/04 00:50:59;;;;;;;7.70;6.40;;;1.60;99.90;;;2.43;70.03;98543.53;5172880;28;20215;-56
2021/04/04 00:53:32;;;;;;;7.10;6.40;;;1.70;99.90;;;2.46;70.08;98543.81;5186338;28;20281;-52
2021/04/04 00:56:05;;;;;;;6.50;5.87;;;1.70;99.90;;;2.54;70.11;98541.16;5168480;28;20663;-54
2021/04/04 00:58:38;;;;;;;7.40;6.33;;;1.70;99.90;;;2.57;69.34;98547.38;5178138;28;20284;-53
2021/04/04 01:01:11;;;;;;;7.73;7.03;;;1.80;99.90;;;2.61;69.11;98541.91;5185270;28;20309;-54
2021/04/04 01:03:43;;;;;;;7.73;6.83;;;1.70;99.90;;;2.55;69.45;98531.22;5181213;28;20286;-56
2021/04/04 01:06:15;;;;;;;7.27;6.63;;;1.60;99.90;;;2.51;68.74;98536.69;5187337;28;20710;-55
2021/04/04 01:08:48;;;;;;;8.13;6.33;;;1.60;99.90;;;2.40;69.62;98538.13;5182734;28;20289;-55
2021/04/04 01:11:30;;;;;;;8.93;6.57;;;1.50;99.90;;;2.35;69.66;98528.38;5185916;28;20214;-56
2021/04/04 01:14:18;;;;;;;8.23;6.67;;;1.40;99.90;;;2.35;69.70;98530.88;5185792;28;20204;-55
2021/04/04 01:17:03;;;;;;;7.60;7.00;;;1.50;99.90;;;2.34;69.68;98531.59;5168107;28;20203;-55
2021/04/04 01:19:51;;;;;;;8.63;7.47;;;1.50;99.90;;;2.08;70.60;98521.44;5166954;28;20585;-54
2021/04/04 01:22:56;;;;;;;7.37;6.70;;;1.30;99.90;;;2.06;70.32;98528.88;5172774;28;20750;-54
2021/04/04 01:25:42;;;;;;;7.23;6.53;;;1.20;99.90;;;2.09;71.20;98534.22;5184759;28;20214;-54
2021/04/04 01:28:18;;;;;;;7.10;6.50;;;1.30;99.90;;;2.15;70.73;98544.03;5178045;28;20206;-54
2021/04/04 01:30:52;;;;;;;7.70;7.10;;;1.40;99.90;;;2.11;71.01;98537.75;5182953;28;20249;-55
2021/04/04 01:33:26;;;;;;;8.33;6.83;;;1.30;99.90;;;2.01;70.76;98535.97;5179725;28;20198;-55
2021/04/04 01:36:01;;;;;;;8.17;7.43;;;1.20;99.90;;;2.08;71.95;98527.38;5183749;28;20263;-52
2021/04/04 01:38:42;;;;;;;8.03;7.10;;;1.20;99.90;;;2.12;70.97;98537.06;5179020;28;20609;-54
2021/04/04 01:41:23;;;;;;;8.07;7.03;;;1.30;99.90;;;2.13;71.66;98541.34;5183438;28;20313;-56
2021/04/04 01:44:02;;;;;;;7.87;7.10;;;1.30;99.90;;;2.14;70.41;98537.19;5185941;28;20631;-54
2021/04/04 01:46:35;;;;;;;7.30;6.60;;;1.40;99.90;;;2.11;71.39;98539.41;5178363;28;20655;-55
2021/04/04 01:49:07;;;;;;;7.70;7.00;;;1.40;99.90;;;2.10;71.30;98533.47;5174810;28;20286;-55
2021/04/04 01:51:41;;;;;;;8.40;7.37;;;1.30;99.90;;;2.10;71.14;98541.03;5165903;28;20224;-54
2021/04/04 01:54:16;;;;;;;8.87;8.00;;;1.30;99.90;;;2.14;71.51;98532.13;5178646;28;20219;-56
2021/04/04 01:56:49;;;;;;;12.03;7.47;;;1.30;99.90;;;2.11;70.90;98537.75;5165798;28;20289;-55
2021/04/04 01:59:25;;;;;;;8.30;7.50;;;1.30;99.90;;;2.13;71.36;98530.38;5183269;28;20205;-54
2021/04/04 02:01:58;;;;;;;8.97;7.90;;;1.30;99.90;;;2.12;70.56;98529.47;5182185;28;20205;-52
2021/04/04 02:04:30;;;;;;;7.03;6.43;;;1.30;99.90;;;2.07;71.00;98528.13;5181508;28;20229;-56
2021/04/04 02:07:03;;;;;;;9.03;7.83;;;1.20;99.90;;;2.07;71.45;98519.69;5165631;28;20201;-53
2021/04/04 02:09:38;;;;;;;7.73;6.93;;;1.10;99.90;;;2.00;71.53;98521.59;5177432;28;20702;-55
2021/04/04 02:12:12;;;;;;;7.73;6.77;;;1.20;99.90;;;1.96;70.50;98526.16;5165538;28;20290;-53
2021/04/04 02:14:46;;;;;;;7.97;7.10;;;1.20;99.90;;;1.98;70.94;98524.69;5176180;28;20195;-55
2021/04/04 02:17:18;;;;;;;7.40;6.77;;;1.20;99.90;;;1.99;71.10;98526.47;5166162;28;20596;-54
2021/04/04 02:19:52;;;;;;;9.23;6.97;;;1.20;99.90;;;1.86;71.11;98518.38;5180824;28;20280;-53
2021/04/04 02:22:24;;;;;;;7.40;6.77;;;1.00;99.90;;;1.84;71.33;98520.78;5165741;28;20730;-53
2021/04/04 02:24:57;;;;;;;7.83;7.10;;;1.00;99.90;;;1.74;71.26;98513.88;5178400;28;20226;-51
2021/04/04 02:27:29;;;;;;;8.23;7.43;;;0.90;99.90;;;1.74;71.88;98513.88;5165240;28;20207;-54
2021/04/04 02:30:05;;;;;;;7.50;6.23;;;0.90;99.90;;;1.75;71.99;98509.78;5195376;22;20219;-58
2021/04/04 02:32:40;;;;;;;9.43;7.33;;;0.90;99.90;;;1.69;71.76;98510.03;5165032;28;20229;-59
2021/04/04 02:35:15;;;;;;;7.60;6.90;;;0.90;99.90;;;1.68;71.59;98507.34;5164171;28;20567;-59
2021/04/04 02:37:48;;;;;;;10.43;8.23;;;0.90;99.90;;;1.75;71.50;98508.13;5164170;28;20257;-58
2021/04/04 02:40:21;;;;;;;8.50;7.70;;;0.90;99.90;;;1.77;71.28;98504.16;5161178;28;20250;-57
2021/04/04 02:42:56;;;;;;;8.90;8.00;;;1.00;99.90;;;1.68;71.90;98503.19;5150934;28;20305;-59
2021/04/04 02:45:30;;;;;;;8.33;7.63;;;0.90;99.90;;;1.67;71.27;98506.47;5157183;28;20227;-59
2021/04/04 02:48:07;;;;;;;7.97;7.33;;;0.90;99.90;;;1.76;71.19;98507.38;5145603;28;20601;-58
2021/04/04 02:50:40;;;;;;;8.33;7.60;;;0.90;99.90;;;1.60;71.59;98501.53;5164676;28;20301;-59
2021/04/04 02:53:13;;;;;;;8.47;7.57;;;0.80;99.90;;;1.49;71.71;98499.56;5163404;28;20196;-60
2021/04/04 02:55:48;;;;;;;9.20;7.73;;;0.70;99.90;;;1.42;72.28;98503.06;5152584;28;20196;-58
2021/04/04 02:58:21;;;;;;;8.47;7.77;;;0.60;99.90;;;1.51;72.09;98505.63;5156019;28;20199;-59
2021/04/04 03:00:57;;;;;;;8.40;7.30;;;0.70;99.90;;;1.55;71.93;98510.25;5154133;28;20238;-59
2021/04/04 03:03:31;;;;;;;8.77;7.77;;;0.80;99.90;;;1.55;72.47;98510.25;5150022;28;20195;-59
2021/04/04 03:06:08;;;;;;;7.73;7.13;;;0.80;99.90;;;1.60;72.49;98511.59;5164683;28;20304;-59
2021/04/04 03:08:42;;;;;;;8.40;7.30;;;0.80;99.90;;;1.56;71.90;98507.00;5163384;28;20234;-59
2021/04/04 03:11:16;;;;;;;10.03;8.07;;;0.70;99.90;;;1.52;71.99;98504.91;5163766;28;20222;-59
2021/04/04 03:13:51;;;;;;;8.10;7.30;;;0.60;99.90;;;1.51;72.40;98510.66;5164103;28;20286;-59
2021/04/04 03:16:25;;;;;;;9.00;8.10;;;0.70;99.90;;;1.54;72.21;98514.38;5164031;28;20718;-59
2021/04/04 03:19:00;;;;;;;10.87;7.17;;;0.70;99.90;;;1.56;72.34;98509.50;5164271;28;20289;-59
2021/04/04 03:21:34;;;;;;;8.37;7.57;;;0.60;99.90;;;1.50;72.04;98509.78;5164437;28;20219;-59
2021/04/04 03:24:08;;;;;;;7.63;6.87;;;0.60;99.90;;;1.53;72.25;98511.72;5163330;28;20546;-59
2021/04/04 03:26:42;;;;;;;7.80;7.03;;;0.60;99.90;;;1.50;72.69;98512.31;5144236;28;20282;-58
2021/04/04 03:29:14;;;;;;;7.83;7.10;;;0.60;99.90;;;1.56;71.59;98509.50;5150795;28;20195;-57
2021/04/04 03:31:48;;;;;;;8.80;7.03;;;0.70;99.90;;;1.47;72.16;98511.09;5148206;28;20259;-59
2021/04/04 03:34:20;;;;;;;9.00;7.13;;;0.70;99.90;;;1.33;72.15;98508.06;5151005;28;20655;-58
2021/04/04 03:36:53;;;;;;;8.03;7.27;;;0.60;99.90;;;1.35;72.50;98506.59;5164255;28;20294;-59
2021/04/04 03:39:26;;;;;;;7.83;7.03;;;0.60;99.90;;;1.37;72.97;98511.78;5164321;28;20287;-59
2021/04/04 03:42:01;;;;;;;8.17;7.40;;;0.50;99.90;;;1.41;72.85;98510.47;5155504;28;20295;-59
2021/04/04 03:44:34;;;;;;;8.10;7.40;;;0.60;99.90;;;1.46;72.49;98514.34;5152988;28;20242;-58
2021/04/04 03:47:08;;;;;;;9.27;7.43;;;0.60;99.90;;;1.43;72.66;98511.50;5163445;28;20205;-60
2021/04/04 03:49:41;;;;;;;7.63;6.83;;;0.60;99.90;;;1.43;72.66;98514.03;5163878;28;20282;-58
2021/04/04 03:52:15;;;;;;;10.10;7.60;;;0.60;99.90;;;1.42;71.77;98517.28;5164382;28;20214;-59
2021/04/04 03:54:50;;;;;;;8.00;6.83;;;0.50;99.90;;;1.38;72.33;98515.22;5163678;28;20195;-59
2021/04/04 03:57:23;;;;;;;8.50;7.53;;;0.50;99.90;;;1.40;72.33;98513.72;5163021;28;20289;-59
2021/04/04 03:59:57;;;;;;;8.47;7.67;;;0.50;99.90;;;1.35;72.34;98516.66;5161597;28;20215;-58
2021/04/04 04:02:30;;;;;;;7.30;6.60;;;0.50;99.90;;;1.29;71.92;98513.53;5144655;28;20719;-59
2021/04/04 04:05:06;;;;;;;7.43;6.60;;;0.50;99.90;;;1.28;72.33;98504.16;5148937;28;20305;-59
2021/04/04 04:07:39;;;;;;;7.63;6.93;;;0.40;99.90;;;1.38;72.28;98512.69;5167842;28;20293;-59
2021/04/04 04:10:15;;;;;;;8.23;7.43;;;0.50;99.90;;;1.41;72.12;98516.41;5167783;28;20681;-59
2021/04/04 04:12:49;;;;;;;7.77;7.07;;;0.50;99.90;;;1.42;72.60;98514.78;5168035;28;20213;-57
2021/04/04 04:15:22;;;;;;;8.77;7.10;;;0.50;99.90;;;1.40;72.29;98513.72;5157304;28;20286;-59
2021/04/04 04:17:58;;;;;;;8.33;7.63;;;0.50;99.90;;;1.37;72.40;98508.38;5147612;28;20210;-59
2021/04/04 04:20:31;;;;;;;8.67;7.70;;;0.50;99.90;;;1.29;71.62;98505.97;5151525;28;20306;-60
2021/04/04 04:23:08;;;;;;;8.43;7.63;;;0.30;99.90;;;1.11;72.33;98511.59;5168045;28;20199;-59
2021/04/04 04:25:42;;;;;;;9.73;8.73;;;0.10;99.90;;;1.08;72.61;98509.66;5167466;28;20658;-59
2021/04/04 04:28:15;;;;;;;9.43;8.30;;;0.10;99.90;;;1.06;73.00;98510.22;5167456;28;20285;-59
2021/04/04 04:30:48;;;;;;;8.60;7.63;;;0.20;99.90;;;1.09;73.27;98506.44;5166295;28;20253;-59
2021/04/04 04:33:23;;;;;;;8.33;7.53;;;0.20;99.90;;;1.19;73.22;98508.25;5153407;28;20723;-58
2021/04/04 04:35:55;;;;;;;8.30;7.53;;;0.30;99.90;;;1.23;73.23;98509.47;5167054;28;20282;-59
2021/04/04 04:38:29;;;;;;;9.17;8.27;;;0.30;99.90;;;1.23;73.27;98505.34;5167103;28;20536;-58
2021/04/04 04:41:01;;;;;;;8.67;7.77;;;0.30;99.90;;;1.20;73.18;98509.16;5167912;28;20219;-59
2021/04/04 04:43:37;;;;;;;8.60;7.70;;;0.30;99.90;;;1.18;73.08;98511.53;5166116;28;20261;-59
2021/04/04 04:46:10;;;;;;;9.07;8.27;;;0.30;99.90;;;1.17;72.44;98509.72;5166323;28;20690;-57
2021/04/04 04:48:43;;;;;;;9.73;8.03;;;0.30;99.90;;;1.20;72.49;98506.63;5167067;28;20203;-58
2021/04/04 04:51:18;;;;;;;7.87;7.10;;;0.30;99.90;;;1.20;72.31;98509.16;5167444;28;20769;-56
2021/04/04 04:53:51;;;;;;;8.07;7.27;;;0.20;99.90;;;1.15;72.32;98503.66;5166434;28;20289;-56
2021/04/04 04:56:25;;;;;;;9.57;7.80;;;0.20;99.90;;;1.19;72.41;98507.38;5148620;28;20686;-56
2021/04/04 04:59:00;;;;;;;8.57;7.77;;;0.20;99.90;;;1.21;72.41;98505.91;5156522;28;20195;-58
2021/04/04 05:01:40;;;;;;;8.93;8.13;;;0.20;99.90;;;1.16;72.80;98505.44;5165654;28;20313;-58
2021/04/04 05:04:13;;;;;;;8.60;7.80;;;0.30;99.90;;;1.15;72.61;98505.28;5167098;28;20207;-58
2021/04/04 05:06:48;;;;;;;9.80;8.83;;;0.30;99.90;;;1.15;72.72;98516.25;5166345;28;20230;-59
2021/04/04 05:09:21;;;;;;;9.07;8.20;;;0.20;99.90;;;1.15;72.67;98498.63;5165827;28;20199;-58
2021/04/04 05:11:55;;;;;;;9.00;8.10;;;0.30;99.90;;;1.22;72.23;98503.53;5166512;28;20250;-59
2021/04/04 05:14:27;;;;;;;8.90;8.00;;;0.30;99.90;;;1.21;72.43;98501.75;5166344;28;20195;-58
2021/04/04 05:16:59;;;;;;;8.03;7.33;;;0.20;99.90;;;1.20;72.67;98511.66;5164612;28;20598;-57
2021/04/04 05:19:32;;;;;;;10.47;7.70;;;0.20;99.90;;;1.20;71.80;98515.06;5165838;28;20286;-58
2021/04/04 05:22:04;;;;;;;8.60;7.80;;;0.30;99.90;;;1.15;72.16;98513.72;5166866;28;20290;-59
2021/04/04 05:24:37;;;;;;;8.70;7.90;;;0.20;99.90;;;1.16;71.75;98522.16;5162007;28;20204;-58
2021/04/04 05:27:09;;;;;;;9.50;8.50;;;0.20;99.90;;;1.20;72.35;98507.50;5146117;28;20557;-59
2021/04/04 05:29:41;;;;;;;8.67;7.87;;;0.30;99.90;;;1.27;72.17;98506.53;5156653;28;20635;-59
2021/04/04 05:32:14;;;;;;;10.33;8.03;;;0.30;99.90;;;1.33;72.14;98507.16;5161822;28;20290;-59
2021/04/04 05:34:47;;;;;;;8.73;7.93;;;0.40;99.90;;;1.35;71.65;98505.72;5166197;28;20227;-59
2021/04/04 05:37:19;;;;;;;8.27;7.57;;;0.30;99.90;;;1.38;71.18;98500.97;5165889;28;20195;-59
2021/04/04 05:39:51;;;;;;;10.80;8.30;;;0.40;99.90;;;1.34;71.84;98499.78;5165282;28;20310;-59
2021/04/04 05:42:25;;;;;;;8.87;8.07;;;0.30;99.90;;;1.46;71.64;98506.78;5166191;28;20209;-58
2021/04/04 05:45:03;;;;;;;8.43;7.63;;;0.40;99.90;;;1.45;70.82;98510.03;5164933;28;20793;-59
2021/04/04 05:47:42;;;;;;;8.03;7.40;;;0.40;99.90;;;1.64;70.98;98510.31;5165967;28;20213;-58
2021/04/04 05:50:22;;;;;;;8.57;7.87;;;0.40;99.90;;;1.75;69.95;98510.66;5164985;28;20305;-55
2021/04/04 05:53:00;;;;;;;8.33;7.53;;;0.50;99.90;;;1.79;69.90;98512.72;5158144;28;20231;-58
2021/04/04 05:55:44;;;;;;;7.60;6.77;;;0.60;99.90;;;2.03;69.77;98514.34;5160259;28;20203;-59
2021/04/04 05:58:23;;;;;;;8.33;7.67;;;0.80;99.90;;;2.58;69.43;98508.81;5166398;28;20293;-57
2021/04/04 06:00:58;;;;;;;8.50;7.40;;;1.20;99.90;;;3.08;66.92;98511.94;5156327;28;20680;-58
2021/04/04 06:04:09;;;;;;;8.83;7.93;;;1.50;99.90;;;3.74;64.93;98495.44;5164569;28;20201;-59
2021/04/04 06:07:16;;;;;;;7.80;7.00;;;2.00;99.90;;;4.44;61.45;98503.59;5142829;28;20660;-59
2021/04/04 06:10:04;;;;;;;9.23;7.60;;;2.30;99.90;;;4.75;60.56;98502.19;5163944;28;20218;-59
2021/04/04 06:12:58;;;;;;;9.50;8.50;;;2.80;99.90;;;5.25;59.17;98508.31;5162277;28;20731;-60
2021/04/04 06:15:44;;;;;;;9.93;7.87;;;3.20;99.90;;;5.31;57.25;98502.88;5161153;28;20609;-59
2021/04/04 06:18:28;;;;;;;9.07;7.73;;;3.50;99.20;;;5.09;58.30;98495.03;5156211;28;20280;-57
2021/04/04 06:21:12;;;;;;;8.27;7.40;;;3.30;99.70;;;5.01;59.03;98496.00;5148636;28;20223;-59
2021/04/04 06:23:51;;;;;;;8.67;7.90;;;3.40;99.50;;;5.02;59.82;98497.78;5160104;28;20287;-59
2021/04/04 06:26:41;;;;;;;8.63;7.73;;;3.50;99.60;;;5.33;58.64;98494.66;5162695;28;20220;-59
2021/04/04 06:29:19;;;;;;;9.10;8.20;;;3.60;99.30;;;5.82;57.85;98496.34;5161528;28;20207;-58
2021/04/04 06:31:59;;;;;;;8.77;7.40;;;4.00;99.00;;;6.30;56.03;98488.63;5161077;28;20324;-57
2021/04/04 06:34:40;;;;;;;9.63;7.90;;;4.30;98.60;;;6.86;54.03;98493.16;5161198;28;20207;-56
2021/04/04 06:38:00;;;;;;;8.10;7.40;;;4.60;97.90;;;7.27;53.38;98487.97;5160744;28;20210;-57
2021/04/04 06:40:42;;;;;;;8.50;7.67;;;4.80;97.50;;;7.75;51.36;98490.94;5160727;28;20302;-59
2021/04/04 06:43:25;;;;;;;8.50;7.60;;;5.40;96.30;;;7.87;51.24;98485.97;5164491;28;20294;-58
2021/04/04 06:46:12;;;;;;;9.13;7.93;;;5.50;95.60;;;8.02;49.66;98487.13;5157205;28;20690;-58
2021/04/04 06:48:55;;;;;;;9.00;7.70;;;5.60;94.90;;;8.16;49.88;98478.00;5161423;28;20286;-59
2021/04/04 06:51:40;;;;;;;10.33;7.90;;;5.50;95.60;;;8.38;49.38;98470.31;5163470;28;20305;-59
2021/04/04 06:54:27;;;;;;;8.67;7.87;;;5.60;95.20;;;8.79;48.40;98473.44;5159306;28;20486;-59
2021/04/04 06:57:14;;;;;;;8.57;7.77;;;6.00;95.00;;;8.97;48.72;98473.91;5161883;28;20209;-59
2021/04/04 07:00:05;;;;;;;8.73;7.30;;;6.30;94.40;;;9.41;47.89;98477.88;5162163;28;20293;-54
2021/04/04 07:02:46;;;;;;;8.50;7.47;;;6.70;94.00;;;9.99;46.35;98476.00;5152019;28;20241;-54
2021/04/04 07:05:22;;;;;;;7.70;7.00;;;7.00;93.40;;;10.48;45.57;98470.03;5158501;28;20222;-58
2021/04/04 07:08:24;;;;;;;7.87;7.07;;;7.30;92.90;;;10.69;45.07;98470.56;5163910;28;20589;-55
2021/04/04 07:11:06;;;;;;;7.63;6.60;;;7.30;93.10;;;11.48;42.64;98471.41;5159702;28;20226;-60
2021/04/04 07:14:22;;;;;;;7.37;6.67;;;7.90;92.00;;;11.85;41.36;98466.03;5157333;28;20291;-60
2021/04/04 07:17:28;;;;;;;8.37;6.97;;;8.00;91.40;;;12.14;41.07;98466.16;5163017;28;20209;-59
2021/04/04 07:20:18;;;;;;;6.83;6.17;;;8.00;91.30;;;12.20;40.87;98470.78;5162923;28;20699;-58
2021/04/04 07:23:34;;;;;;;7.97;7.13;;;8.20;91.00;;;12.01;41.03;98473.88;5163700;28;20739;-59
2021/04/04 07:26:23;;;;;;;7.53;6.90;;;8.30;90.80;;;11.79;41.80;98475.88;5159602;28;20314;-59
2021/04/04 07:29:25;;;;;;;8.75;6.90;;;8.60;90.40;;;11.54;42.47;98466.69;5143778;28;20728;-59
2021/04/04 07:32:05;;;;;;;7.63;6.85;;;8.70;90.40;;;11.54;42.57;98476.91;5157635;28;20320;-57
2021/04/04 07:34:47;;;;;;;8.38;6.93;;;9.10;89.80;;;11.52;42.76;98475.94;5162884;28;20203;-57
2021/04/04 07:37:36;;;;;;;8.32;7.53;;;9.30;88.60;;;11.76;41.82;98462.88;5161156;28;20710;-57
2021/04/04 07:40:17;;;;;;;7.93;7.18;;;9.20;87.50;;;11.60;42.20;98473.88;5165685;28;20305;-61
2021/04/04 07:42:54;;;;;;;7.90;7.10;;;9.30;87.90;;;11.67;42.45;98466.63;5167392;28;20730;-59
2021/04/04 07:45:35;;;;;;;8.80;7.83;;;9.50;87.70;;;11.80;41.61;98468.31;5161807;28;20227;-57
2021/04/04 07:48:22;;;;;;;7.87;7.17;;;9.90;86.00;;;11.70;41.66;98469.41;5166324;28;20299;-58
2021/04/04 07:51:04;;;;;;;9.02;6.95;;;9.90;85.00;;;11.79;41.49;98469.09;5164883;28;20706;-59
2021/04/04 07:53:44;;;;;;;10.85;7.25;;;10.00;84.70;;;11.99;41.52;98467.81;5167041;28;20199;-59
2021/04/04 07:56:21;;;;;;;9.50;7.07;;;10.00;85.20;;;12.09;41.65;98466.69;5163821;28;20289;-59
2021/04/04 07:59:03;;;;;;;7.43;6.50;;;10.20;85.30;;;12.12;41.80;98471.97;5163873;28;20197;-58
2021/04/04 08:01:40;;;;;;;7.67;6.87;;;10.30;84.20;;;12.26;41.59;98455.75;5162631;28;20250;-59
2021/04/04 08:04:19;;;;;;;7.88;6.55;;;10.60;84.40;;;12.58;41.23;98467.91;5167310;28;20226;-58
2021/04/04 08:06:58;;;;;;;8.90;6.75;;;10.90;83.30;;;12.73;40.43;98464.47;5164365;28;20225;-59
2021/04/04 08:09:38;;;;;;;7.47;6.13;;;11.20;82.60;;;12.81;40.24;98463.25;5167118;28;20742;-58
2021/04/04 08:12:21;;;;;;;6.88;6.18;;;11.40;81.90;;;12.76;40.17;98460.44;5167001;28;20624;-58
2021/04/04 08:14:59;;;;;;;6.40;5.63;;;11.30;82.00;;;13.03;40.03;98471.41;5166874;28;20198;-58
2021/04/04 08:17:34;;;;;;;8.23;5.95;;;11.50;81.80;;;13.16;39.58;98466.94;5167534;28;20222;-58
2021/04/04 08:20:22;;;;;;;6.75;5.95;;;11.60;80.70;;;13.22;39.29;98464.72;5166277;28;20273;-56
2021/04/04 08:23:03;;;;;;;7.65;5.78;;;11.80;80.30;;;13.16;38.72;98466.94;5166702;28;20287;-58
2021/04/04 08:25:44;;;;;;;8.82;6.60;;;11.70;78.80;;;13.32;39.74;98459.34;5166593;28;20306;-58
2021/04/04 08:28:24;;;;;;;7.78;6.05;;;12.00;79.00;;;13.41;39.16;98459.84;5161605;28;20204;-59
2021/04/04 08:31:07;;;;;;;8.07;6.28;;;12.10;79.20;;;13.60;39.32;98448.06;5166597;28;20313;-58
2021/04/04 08:33:48;;;;;;;7.93;6.00;;;12.30;79.00;;;13.57;38.70;98451.34;5161529;28;20289;-54
2021/04/04 08:36:25;;;;;;;9.55;6.78;;;12.10;78.70;;;13.73;38.51;98455.59;5166242;28;20624;-55
2021/04/04 08:38:59;;;;;;;10.52;5.82;;;12.60;77.20;;;13.94;37.84;98449.06;5169303;28;20230;-57
2021/04/04 08:41:38;;;;;;;7.45;6.15;;;12.70;76.60;;;14.06;37.45;98450.53;5166640;28;20301;-54
2021/04/04 08:44:23;;;;;;;7.90;5.68;;;12.80;75.70;;;13.96;36.93;98444.00;5156652;28;20290;-59
2021/04/04 08:47:04;;;;;;;7.35;5.63;;;12.80;75.50;;;14.01;37.57;98446.81;5169600;28;20222;-57
2021/04/04 08:49:38;;;;;;;9.68;5.78;;;12.90;75.10;;;14.12;37.49;98450.84;5151163;28;20294;-56
2021/04/04 08:52:17;;;;;;;6.88;6.18;;;13.00;74.90;;;14.19;37.44;98445.19;5160856;28;20643;-59
2021/04/04 08:54:54;;;;;;;8.00;5.88;;;13.00;75.40;;;14.09;37.88;98448.97;5165645;28;20560;-59
2021/04/04 08:57:36;;;;;;;7.63;5.65;;;12.90;76.40;;;14.22;37.97;98442.78;5165431;28;20231;-58
2021/04/04 09:00:11;;;;;;;7.43;5.97;;;12.90;76.50;;;14.47;37.54;98442.38;5164294;28;20765;-58
2021/04/04 09:02:49;;;;;;;8.60;5.80;;;13.40;75.90;;;14.57;36.38;98443.78;5165375;28;20286;-59
2021/04/04 09:05:25;;;;;;;5.93;5.30;;;13.20;73.60;;;14.69;36.00;98449.53;5164153;28;20228;-60
2021/04/04 09:07:59;;;;;;;6.43;5.82;;;13.40;73.60;;;14.62;35.50;98444.88;5164361;28;20572;-60
2021/04/04 09:10:37;;;;;;;6.57;5.45;;;13.40;72.40;;;14.71;35.70;98447.94;5164841;28;20651;-59
2021/04/04 09:13:12;;;;;;;6.60;5.95;;;13.60;72.20;;;14.90;34.97;98439.41;5164866;28;20310;-58
2021/04/04 09:15:50;;;;;;;6.20;5.65;;;13.90;71.20;;;15.16;34.26;98438.09;5161913;28;20269;-58
2021/04/04 09:18:25;;;;;;;6.43;5.60;;;14.10;70.40;;;15.17;34.74;98437.31;5159908;28;20286;-58
2021/04/04 09:21:05;;;;;;;5.97;5.20;;;14.20;70.50;;;15.27;32.93;98431.78;5164849;28;20233;-58
2021/04/04 09:23:38;;;;;;;7.28;5.50;;;14.30;67.50;;;15.26;33.50;98427.44;5164312;28;20290;-59
2021/04/04 09:26:16;;;;;;;5.53;4.57;;;14.20;68.50;;;15.19;33.50;98427.94;5159784;28;20222;-59
2021/04/04 09:28:49;;;;;;;4.45;4.05;;;14.10;68.40;;;15.26;31.22;98424.88;5159799;28;20195;-58
2021/04/04 09:31:25;;;;;;;4.55;3.70;;;14.30;63.60;;;15.45;30.38;98418.00;5160365;28;20241;-60
2021/04/04 09:34:03;;;;;;;4.43;3.42;;;14.40;62.10;;;15.44;29.50;98418.81;5164139;28;20298;-61
2021/04/04 09:36:42;;;;;;;3.58;3.28;;;14.10;61.30;;;15.37;29.48;98414.22;5165605;28;20299;-59
2021/04/04 09:39:18;;;;;;;3.03;2.83;;;13.90;61.10;;;15.13;29.76;98417.34;5163652;28;20739;-59
2021/04/04 09:41:52;;;;;;;3.92;3.15;;;13.50;61.50;;;15.21;29.29;98410.88;5163569;28;20670;-60
2021/04/04 09:44:30;;;;;;;4.45;3.35;;;13.70;61.90;;;15.39;29.82;98410.00;5163673;28;20245;-59
2021/04/04 09:47:05;;;;;;;4.80;3.63;;;14.00;63.10;;;15.33;30.32;98408.00;5155646;28;20306;-60
2021/04/04 09:49:42;;;;;;;4.57;3.72;;;13.80;63.50;;;15.45;30.73;98415.44;5165343;28;20286;-58
2021/04/04 09:52:21;;;;;;;4.50;4.10;;;14.10;64.10;;;15.31;30.20;98407.94;5165362;28;20281;-59
2021/04/04 09:55:08;;;;;;;5.15;4.65;;;13.90;63.00;;;14.98;31.67;98414.94;5162417;28;20624;-60
2021/04/04 09:58:03;;;;;;;6.68;3.92;;;13.50;65.60;;;15.07;30.39;98401.63;5158653;28;20199;-59
2021/04/04 10:00:38;;;;;;;7.38;4.43;;;13.20;64.30;;;15.01;31.60;98396.19;5148549;28;20314;-58
2021/04/04 10:03:12;;;;;;;5.55;4.45;;;13.30;66.70;;;14.78;33.07;98398.50;5144369;28;20211;-57
2021/04/04 10:05:46;;;;;;;4.90;4.35;;;13.20;68.20;;;14.74;33.35;98401.75;5145644;28;20224;-58
2021/04/04 10:08:21;;;;;;;5.65;4.40;;;13.20;68.90;;;14.61;33.51;98397.66;5145207;28;20203;-58
2021/04/04 10:10:55;;;;;;;5.63;4.30;;;13.40;68.40;;;14.36;34.25;98394.63;5146240;28;20311;-57
2021/04/04 10:13:29;;;;;;;5.80;4.32;;;13.30;68.20;;;14.80;33.35;98396.03;5151567;28;20209;-57
2021/04/04 10:16:03;;;;;;;5.25;4.32;;;13.50;68.10;;;14.76;33.55;98394.97;5155600;28;20192;-58
2021/04/04 10:18:36;;;;;;;4.97;4.20;;;13.60;67.70;;;14.93;32.87;98392.34;5145171;28;20235;-57
2021/04/04 10:21:20;;;;;;;4.70;4.18;;;13.80;67.10;;;15.18;31.91;98389.25;5171543;28;20221;-58
2021/04/04 10:23:53;;;;;;;5.05;4.50;;;13.90;65.60;;;15.31;32.00;98392.50;5185676;28;20294;-58
2021/04/04 10:26:25;;;;;;;5.93;4.22;;;14.10;65.60;;;15.48;31.95;98374.34;5147400;28;20224;-57
2021/04/04 10:29:01;;;;;;;5.35;4.65;;;14.50;66.00;;;15.50;33.38;98375.31;5145321;28;20239;-58
2021/04/04 10:31:47;;;;;;;4.80;4.10;;;14.60;67.90;;;15.85;31.34;98373.47;5145429;28;20662;-59
2021/04/04 10:34:19;;;;;;;4.60;4.10;;;14.80;64.30;;;15.96;31.60;98380.84;5145135;28;20208;-58
2021/04/04 10:37:01;;;;;;;4.95;4.47;;;14.90;65.00;;;15.58;31.25;98371.38;5145338;28;20195;-56
2021/04/04 10:39:34;;;;;;;4.80;4.40;;;14.60;63.80;;;15.62;31.29;98372.41;5146306;28;20227;-58
2021/04/04 10:42:14;;;;;;;5.95;4.78;;;14.50;64.40;;;15.51;30.87;98364.22;5145165;28;20231;-58
2021/04/04 10:44:48;;;;;;;5.78;5.15;;;14.10;63.90;;;14.82;32.50;98369.56;5144562;28;20286;-58
2021/04/04 10:47:23;;;;;;;5.75;5.20;;;13.70;66.30;;;14.83;33.00;98366.16;5144772;28;20229;-58
2021/04/04 10:49:56;;;;;;;5.78;4.95;;;13.50;66.90;;;14.73;33.76;98363.94;5144689;28;20225;-59
2021/04/04 10:52:29;;;;;;;6.47;5.15;;;13.40;69.10;;;14.94;33.50;98363.25;5146136;28;20231;-60
2021/04/04 10:55:05;;;;;;;5.40;4.90;;;13.50;68.60;;;15.00;32.99;98366.09;5163484;28;20207;-58
2021/04/04 10:57:39;;;;;;;5.28;4.85;;;13.30;67.30;;;14.99;32.76;98366.91;5164965;28;20218;-58
2021/04/04 11:00:12;;;;;;;5.57;4.80;;;13.40;67.50;;;14.52;33.95;98362.91;5164660;28;20297;-58
2021/04/04 11:02:45;;;;;;;5.30;4.80;;;13.20;68.70;;;14.41;34.23;98360.63;5164919;28;20657;-58
2021/04/04 11:05:20;;;;;;;5.50;4.57;;;13.00;69.90;;;14.32;34.69;98357.59;5162899;28;20225;-57
2021/04/04 11:07:53;;;;;;;6.20;5.13;;;13.00;69.60;;;14.58;33.53;98358.06;5164689;28;20205;-58
2021/04/04 11:10:26;;;;;;;5.05;4.50;;;13.20;68.10;;;14.54;33.31;98351.00;5164792;28;20658;-58